Time;durP1;ratioP1;P1;durP2;ratioP2;P2;SDS_P1;SDS_P2;PMS_P1;PMS_P2;Temp;Humidity;BMP_temperature;BMP_pressure;BME280_temperature;BME280_humidity;BME280_pressure;Samples;Min_cycle;Max_cycle;Signal;HPM_P1;HPM_P2
2023/05/03 08:09:59;;;;;;;7.75;3.90;;;;;;;9.24;69.29;102657.81;5085999;27;1918616;-73
2023/05/03 08:12:25;;;;;;;8.95;4.30;;;;;;;9.33;66.77;102650.53;5117100;28;20040;-70
2023/05/03 08:14:51;;;;;;;6.45;4.13;;;;;;;9.40;65.41;102644.28;5090616;28;20055;-73
2023/05/03 08:17:17;;;;;;;15.73;4.80;;;;;;;9.47;66.27;102636.31;5109606;28;20032;-71
2023/05/03 08:19:43;;;;;;;9.10;4.55;;;;;;;9.55;66.62;102630.88;5109477;28;20391;-70
2023/05/03 08:22:11;;;;;;;11.65;4.85;;;;;;;9.66;64.67;102653.13;5090452;28;20028;-71
2023/05/03 08:24:37;;;;;;;9.13;4.22;;;;;;;9.69;64.60;102644.66;5107066;28;20463;-69
2023/05/03 08:27:02;;;;;;;8.80;4.00;;;;;;;9.77;65.09;102650.06;5107153;28;20407;-72
2023/05/03 08:29:28;;;;;;;7.30;4.13;;;;;;;9.81;63.46;102642.44;5108495;28;20444;-71
2023/05/03 08:31:53;;;;;;;8.95;4.18;;;;;;;9.89;63.68;102640.53;5109185;28;20028;-72
2023/05/03 08:34:18;;;;;;;8.05;3.88;;;;;;;9.95;62.72;102633.59;5091043;28;20024;-68
2023/05/03 08:36:43;;;;;;;6.93;3.78;;;;;;;10.05;63.36;102634.19;5109567;28;20035;-72
2023/05/03 08:39:10;;;;;;;10.45;4.45;;;;;;;10.14;63.20;102636.88;5089137;28;20066;-70
2023/05/03 08:41:35;;;;;;;12.73;4.53;;;;;;;10.22;63.16;102634.09;5106662;28;20023;-68
2023/05/03 08:44:03;;;;;;;8.95;4.15;;;;;;;10.29;62.79;102635.06;5090957;28;20089;-73
2023/05/03 08:46:29;;;;;;;5.70;3.83;;;;;;;10.36;61.94;102627.97;5091539;28;20060;-72
2023/05/03 08:48:55;;;;;;;10.48;3.80;;;;;;;10.43;59.65;102630.78;5091263;28;20118;-75
2023/05/03 08:51:22;;;;;;;7.68;4.10;;;;;;;10.43;59.34;102620.81;5089477;28;20373;-73
2023/05/03 08:53:48;;;;;;;8.65;3.78;;;;;;;10.43;59.06;102631.63;5106425;28;20035;-71
2023/05/03 08:56:27;;;;;;;11.77;3.97;;;;;;;10.59;58.74;102643.34;5108332;28;20507;-73
2023/05/03 08:58:53;;;;;;;7.28;4.30;;;;;;;10.57;57.95;102648.94;5108916;28;20040;-69
2023/05/03 09:01:19;;;;;;;7.45;4.07;;;;;;;10.65;58.42;102650.75;5095875;28;20495;-72
2023/05/03 09:03:49;;;;;;;7.90;4.07;;;;;;;10.70;58.24;102648.31;5093616;28;20478;-73
2023/05/03 09:06:21;;;;;;;6.28;3.95;;;;;;;10.78;58.74;102650.16;5109256;28;20035;-71
2023/05/03 09:08:47;;;;;;;7.25;4.07;;;;;;;10.84;58.01;102648.56;5107269;28;20047;-74
2023/05/03 09:11:29;;;;;;;6.55;3.85;;;;;;;10.96;58.37;102647.94;5108961;28;20032;-71
2023/05/03 09:14:21;;;;;;;7.25;3.95;;;;;;;11.01;58.39;102639.28;5107253;28;20097;-69
2023/05/03 09:16:46;;;;;;;8.80;4.82;;;;;;;11.02;56.72;102640.97;5083175;28;20475;-70
2023/05/03 09:19:14;;;;;;;11.25;4.53;;;;;;;11.09;57.08;102643.75;5104694;28;20046;-72
2023/05/03 09:21:42;;;;;;;5.63;4.25;;;;;;;11.12;55.85;102633.38;5094506;28;20131;-74
2023/05/03 09:24:15;;;;;;;8.27;3.90;;;;;;;11.09;55.95;102635.63;5075415;28;20032;-72
2023/05/03 09:26:41;;;;;;;6.97;4.18;;;;;;;11.20;56.14;102637.03;5076977;28;20028;-76
2023/05/03 09:29:07;;;;;;;9.55;4.13;;;;;;;11.23;56.34;102642.09;5092767;28;20063;-73
2023/05/03 09:31:33;;;;;;;7.50;3.95;;;;;;;11.27;55.99;102638.81;5094976;28;20036;-74
2023/05/03 09:33:59;;;;;;;8.38;4.50;;;;;;;11.38;56.52;102640.22;5096445;28;20413;-75
2023/05/03 09:36:26;;;;;;;9.70;3.80;;;;;;;11.41;55.63;102634.44;5076706;28;20111;-75
2023/05/03 09:38:52;;;;;;;6.47;4.28;;;;;;;11.41;54.72;102618.16;5096213;28;20028;-76
2023/05/03 09:41:28;;;;;;;6.50;3.80;;;;;;;11.48;55.26;102631.84;5077188;28;20045;-71
2023/05/03 09:43:55;;;;;;;7.22;3.60;;;;;;;11.61;54.79;102632.03;5092490;28;20034;-72
2023/05/03 09:46:23;;;;;;;6.30;3.50;;;;;;;11.65;54.26;102640.59;5074260;28;20520;-74
2023/05/03 09:48:49;;;;;;;7.25;4.22;;;;;;;11.60;54.52;102635.75;5075985;28;20086;-77
2023/05/03 09:51:15;;;;;;;6.30;4.00;;;;;;;11.57;54.30;102616.31;5075244;28;20086;-76
2023/05/03 09:53:40;;;;;;;12.30;4.03;;;;;;;11.74;55.02;102611.53;5076353;28;20035;-78
2023/05/03 09:56:11;;;;;;;7.07;3.72;;;;;;;11.82;54.12;102616.81;5076202;28;20107;-73
2023/05/03 09:58:36;;;;;;;10.75;4.00;;;;;;;11.83;53.84;102613.09;5094464;28;20035;-74
2023/05/03 10:01:02;;;;;;;8.13;4.13;;;;;;;11.97;54.18;102627.69;5072979;28;20024;-74
2023/05/03 10:03:44;;;;;;;6.22;3.80;;;;;;;12.03;54.85;102621.47;5093468;28;20403;-76
2023/05/03 10:06:13;;;;;;;;;;;;;;;12.11;55.88;102624.09;5076063;28;20036;-73
2023/05/03 10:08:41;;;;;;;6.38;3.63;;;;;;;12.13;53.93;102610.34;5094112;28;19969;-75
2023/05/03 10:11:08;;;;;;;11.20;4.28;;;;;;;12.23;54.29;102611.69;5075524;28;20038;-75
2023/05/03 10:13:34;;;;;;;7.07;4.18;;;;;;;12.18;52.26;102608.75;5063761;28;20032;-75
2023/05/03 10:16:20;;;;;;;8.40;4.07;;;;;;;12.26;54.02;102607.78;5073895;28;20468;-75
2023/05/03 10:19:02;;;;;;;8.00;4.18;;;;;;;12.32;53.08;102604.28;5073626;28;20036;-77
2023/05/03 10:21:49;;;;;;;6.45;4.03;;;;;;;12.36;52.33;102621.00;5091188;28;20039;-73
2023/05/03 10:24:17;;;;;;;8.55;4.63;;;;;;;12.28;50.89;102613.00;5092200;28;20047;-77
2023/05/03 10:26:48;;;;;;;11.00;3.70;;;;;;;12.40;51.98;102612.28;5075959;28;20462;-74
2023/05/03 10:29:36;;;;;;;8.10;3.95;;;;;;;12.52;53.12;102620.75;5093838;28;20027;-72
2023/05/03 10:32:02;;;;;;;7.93;4.10;;;;;;;12.63;52.20;102623.97;5092828;28;20032;-74
2023/05/03 10:34:32;;;;;;;12.27;4.22;;;;;;;12.61;50.14;102616.03;5093946;28;20024;-79
2023/05/03 10:37:01;;;;;;;10.20;4.20;;;;;;;12.68;51.24;102613.38;5093252;28;20118;-76
2023/05/03 10:39:27;;;;;;;7.40;4.18;;;;;;;12.66;50.74;102615.44;5092052;28;20032;-78
2023/05/03 10:42:03;;;;;;;7.15;3.92;;;;;;;12.80;51.17;102617.22;5091974;28;20516;-75
2023/05/03 10:44:48;;;;;;;8.18;4.10;;;;;;;12.93;51.34;102608.34;5074791;28;20042;-76
2023/05/03 10:50:45;;;;;;;9.82;4.13;;;;;;;12.84;50.16;102610.38;5092809;28;20093;-74
2023/05/03 10:53:34;;;;;;;8.15;4.13;;;;;;;12.93;51.26;102605.63;5075186;28;20452;-75
2023/05/03 10:56:11;;;;;;;7.32;4.10;;;;;;;12.98;50.71;102615.91;5093030;28;20028;-76
2023/05/03 10:58:41;;;;;;;8.95;4.20;;;;;;;13.01;50.29;102607.34;5093188;28;20048;-76
2023/05/03 11:01:09;;;;;;;8.07;4.05;;;;;;;13.04;50.06;102607.78;5072132;28;20039;-75
2023/05/03 11:03:48;;;;;;;9.25;4.18;;;;;;;13.14;49.98;102612.06;5093456;28;20149;-76
2023/05/03 11:06:34;;;;;;;7.13;4.28;;;;;;;13.22;51.00;102615.44;5093400;28;20055;-73
2023/05/03 11:09:01;;;;;;;7.18;4.30;;;;;;;13.23;49.45;102603.53;5074025;28;20136;-75
2023/05/03 11:11:26;;;;;;;9.10;4.50;;;;;;;13.37;50.82;102595.50;5092114;28;20027;-72
2023/05/03 11:13:52;;;;;;;10.05;4.03;;;;;;;13.50;49.91;102595.56;5075222;28;20031;-77
2023/05/03 11:16:18;;;;;;;7.65;4.20;;;;;;;13.47;48.75;102593.25;5074732;28;20048;-75
2023/05/03 11:18:44;;;;;;;6.20;4.30;;;;;;;13.56;49.17;102583.88;5074151;28;20412;-72
2023/05/03 11:21:10;;;;;;;8.63;4.35;;;;;;;13.65;49.65;102590.81;5075140;28;20131;-73
2023/05/03 11:23:37;;;;;;;9.55;4.60;;;;;;;13.61;49.50;102591.41;5092975;28;20198;-74
2023/05/03 11:26:05;;;;;;;7.82;4.10;;;;;;;13.70;48.79;102579.31;5075058;28;20066;-74
2023/05/03 11:28:30;;;;;;;7.78;4.45;;;;;;;13.73;48.68;102578.06;5089805;28;20031;-75
2023/05/03 11:30:56;;;;;;;11.05;4.32;;;;;;;13.77;48.45;102569.31;5074872;28;20024;-75
2023/05/03 11:33:21;;;;;;;11.15;4.32;;;;;;;13.86;48.18;102572.69;5074838;28;20035;-74
2023/05/03 11:35:47;;;;;;;6.93;3.95;;;;;;;13.85;47.40;102564.72;5093430;28;20039;-75
2023/05/03 11:38:12;;;;;;;7.28;4.47;;;;;;;13.90;47.94;102563.03;5092003;28;20032;-73
2023/05/03 11:40:38;;;;;;;9.25;4.40;;;;;;;13.91;47.30;102570.16;5093222;28;20134;-79
2023/05/03 11:43:05;;;;;;;7.93;4.43;;;;;;;13.95;47.52;102559.69;5074693;28;20020;-77
2023/05/03 11:45:39;;;;;;;7.40;4.35;;;;;;;13.90;47.31;102557.59;5092032;28;20035;-75
2023/05/03 11:48:05;;;;;;;7.65;4.47;;;;;;;14.09;48.42;102560.59;5091647;28;20035;-78
2023/05/03 11:50:54;;;;;;;8.57;4.30;;;;;;;14.12;48.00;102554.75;5092469;28;20059;-77
2023/05/03 11:53:25;;;;;;;5.32;4.15;;;;;;;14.23;47.44;102553.28;5092356;28;20039;-77
2023/05/03 11:55:55;;;;;;;9.93;4.50;;;;;;;14.35;47.80;102538.81;5092553;28;20035;-75
2023/05/03 11:58:25;;;;;;;9.70;4.80;;;;;;;14.46;47.82;102544.69;5073561;28;20032;-77
2023/05/03 12:00:55;;;;;;;10.32;4.88;;;;;;;14.31;46.91;102532.13;5090431;28;20024;-78
2023/05/03 12:03:21;;;;;;;13.68;5.22;;;;;;;14.44;47.62;102533.19;5072840;28;20024;-77
2023/05/03 12:05:48;;;;;;;9.40;4.28;;;;;;;14.52;46.82;102531.09;5073938;28;20101;-77
2023/05/03 12:08:18;;;;;;;9.75;4.70;;;;;;;14.61;46.67;102531.72;5091284;28;20052;-74
2023/05/03 12:10:44;;;;;;;8.15;4.30;;;;;;;14.62;45.19;102533.41;5092675;28;20024;-75
2023/05/03 12:13:10;;;;;;;9.88;4.38;;;;;;;14.73;45.58;102522.91;5074088;28;20075;-74
2023/05/03 12:15:42;;;;;;;6.82;4.60;;;;;;;14.74;45.11;102530.06;5091076;28;20063;-78
2023/05/03 12:18:09;;;;;;;5.15;4.20;;;;;;;14.81;45.58;102517.22;5089906;28;20501;-75
2023/05/03 12:20:37;;;;;;;8.80;4.40;;;;;;;14.84;45.21;102517.66;5091646;28;20095;-75
2023/05/03 12:23:04;;;;;;;13.35;4.57;;;;;;;14.89;45.36;102506.94;5092128;28;20084;-74
2023/05/03 12:25:30;;;;;;;280.00;17.20;;;;;;;15.13;46.59;102515.50;5073822;28;20032;-75
2023/05/03 12:28:00;;;;;;;55.25;6.20;;;;;;;15.23;45.15;102512.28;5089480;28;20038;-74
2023/05/03 12:30:26;;;;;;;190.18;14.48;;;;;;;15.42;45.18;102503.19;5073744;28;20031;-72
2023/05/03 12:32:52;;;;;;;25.48;5.22;;;;;;;15.52;43.63;102499.16;5091791;28;20460;-75
2023/05/03 12:35:19;;;;;;;11.15;4.20;;;;;;;15.45;44.40;102493.75;5073857;28;20093;-77
2023/05/03 12:37:45;;;;;;;15.77;4.55;;;;;;;15.46;45.54;102489.13;5090638;28;20028;-75
2023/05/03 12:40:11;;;;;;;28.13;5.00;;;;;;;15.47;46.12;102480.72;5091874;28;20028;-77
2023/05/03 12:42:36;;;;;;;9.35;4.60;;;;;;;15.49;44.94;102472.31;5092384;28;20040;-75
2023/05/03 12:45:02;;;;;;;8.90;4.35;;;;;;;15.49;45.46;102469.56;5092430;28;20119;-75
2023/05/03 12:47:31;;;;;;;14.85;4.32;;;;;;;15.59;45.00;102462.63;5065391;28;20078;-78
2023/05/03 12:50:02;;;;;;;8.40;4.18;;;;;;;15.66;46.66;102459.84;5092455;28;20368;-77
2023/05/03 12:52:27;;;;;;;9.60;4.50;;;;;;;15.76;44.71;102456.59;5073968;28;20077;-80
2023/05/03 12:54:53;;;;;;;8.57;4.22;;;;;;;15.90;44.16;102471.88;5072866;28;20040;-80
2023/05/03 12:57:41;;;;;;;5.80;4.28;;;;;;;15.84;44.23;102463.75;5093840;28;20028;-78
2023/05/03 13:00:08;;;;;;;7.03;4.13;;;;;;;15.86;43.61;102448.81;5073922;28;20063;-79
2023/05/03 13:02:34;;;;;;;7.32;4.03;;;;;;;15.99;45.20;102450.59;5093060;28;20081;-79
2023/05/03 13:04:59;;;;;;;7.10;4.07;;;;;;;16.15;42.64;102453.84;5095789;28;20020;-76
2023/05/03 13:07:27;;;;;;;11.82;4.30;;;;;;;16.17;43.37;102449.84;5076383;28;20039;-79
2023/05/03 13:09:53;;;;;;;6.18;4.25;;;;;;;16.18;44.67;102453.38;5057091;28;20505;-80
2023/05/03 13:12:19;;;;;;;12.93;4.47;;;;;;;16.13;42.84;102446.69;5056940;28;20036;-72
2023/05/03 13:14:46;;;;;;;6.47;4.30;;;;;;;16.23;43.06;102434.41;5068338;28;20380;-79
2023/05/03 13:17:12;;;;;;;13.18;4.50;;;;;;;16.24;44.01;102430.63;5072912;28;20468;-76
2023/05/03 13:19:39;;;;;;;14.07;4.57;;;;;;;16.34;44.00;102432.88;5077320;28;20052;-77
2023/05/03 13:22:26;;;;;;;10.43;4.45;;;;;;;16.43;43.15;102429.63;5077465;28;20035;-78
2023/05/03 13:27:51;;;;;;;9.15;4.30;;;;;;;16.50;42.72;102420.50;5083968;28;20036;-75
2023/05/03 13:30:20;;;;;;;8.20;4.07;;;;;;;16.66;41.92;102419.91;5069403;28;20038;-74
2023/05/03 13:32:46;;;;;;;7.50;4.05;;;;;;;16.82;41.77;102410.28;5074938;28;20025;-76
2023/05/03 13:35:12;;;;;;;9.02;4.05;;;;;;;16.86;41.00;102410.66;5074039;28;20028;-73
2023/05/03 13:37:37;;;;;;;11.55;4.15;;;;;;;16.91;41.41;102414.41;5074937;28;20365;-76
2023/05/03 13:40:03;;;;;;;8.60;4.38;;;;;;;16.91;40.26;102413.53;5074272;28;20040;-76
2023/05/03 13:42:29;;;;;;;10.85;4.35;;;;;;;16.90;40.39;102412.72;5076125;28;20115;-74
2023/05/03 13:44:54;;;;;;;7.43;4.28;;;;;;;16.97;40.44;102397.06;5077321;28;20028;-77
2023/05/03 13:47:20;;;;;;;9.98;4.43;;;;;;;16.95;39.77;102399.22;5074305;28;20028;-78
2023/05/03 13:49:46;;;;;;;9.35;4.15;;;;;;;16.97;40.65;102396.25;5069301;28;20052;-73
2023/05/03 13:52:11;;;;;;;9.98;3.85;;;;;;;17.06;40.37;102400.31;5089126;28;20072;-78
2023/05/03 13:54:37;;;;;;;8.77;4.22;;;;;;;17.26;41.80;102386.38;5094493;28;20028;-74
2023/05/03 13:57:02;;;;;;;9.13;4.03;;;;;;;17.34;40.13;102396.16;5094991;28;20035;-73
2023/05/03 13:59:27;;;;;;;7.38;3.80;;;;;;;17.39;39.63;102387.22;5100072;28;20032;-76
2023/05/03 14:02:19;;;;;;;7.20;3.88;;;;;;;17.58;41.00;102379.81;5073179;28;20028;-81
2023/05/03 14:04:45;;;;;;;7.57;3.75;;;;;;;17.47;37.94;102368.59;5035719;28;20066;-75
2023/05/03 14:07:10;;;;;;;13.40;3.65;;;;;;;17.40;37.96;102367.03;5077422;28;20060;-75
2023/05/03 14:09:38;;;;;;;8.23;4.00;;;;;;;17.36;38.36;102372.97;5073665;28;20056;-76
2023/05/03 14:12:05;;;;;;;9.25;4.45;;;;;;;17.24;38.72;102363.03;5070375;28;20127;-74
2023/05/03 14:14:30;;;;;;;8.15;4.03;;;;;;;17.29;39.12;102369.47;5071710;28;20048;-76
2023/05/03 14:16:56;;;;;;;10.18;3.80;;;;;;;17.40;39.80;102361.53;5072931;28;20059;-74
2023/05/03 14:19:21;;;;;;;7.85;4.00;;;;;;;17.44;38.37;102357.28;5074199;28;20047;-75
2023/05/03 14:21:48;;;;;;;8.80;3.97;;;;;;;17.56;38.80;102349.94;5071666;28;20024;-76
2023/05/03 14:24:14;;;;;;;6.80;4.07;;;;;;;17.60;38.65;102366.69;5059743;28;20051;-73
2023/05/03 14:26:40;;;;;;;8.82;3.72;;;;;;;17.71;38.32;102341.25;5052704;28;20070;-76
2023/05/03 14:29:05;;;;;;;5.85;3.80;;;;;;;17.72;39.25;102353.84;5055755;28;20499;-75
2023/05/03 14:31:32;;;;;;;8.98;3.80;;;;;;;17.80;38.37;102347.19;5070196;28;20044;-75
2023/05/03 14:33:58;;;;;;;6.90;3.53;;;;;;;17.94;38.77;102345.13;5074128;28;20035;-74
2023/05/03 14:36:28;;;;;;;7.32;4.28;;;;;;;18.03;37.22;102340.94;5073741;28;20032;-72
2023/05/03 14:38:53;;;;;;;8.40;3.75;;;;;;;18.08;37.54;102341.03;5074042;28;20021;-75
2023/05/03 14:41:20;;;;;;;8.80;3.80;;;;;;;18.22;37.43;102341.63;5062802;28;20040;-75
2023/05/03 14:43:46;;;;;;;8.65;3.60;;;;;;;18.30;36.89;102349.50;5066578;28;20025;-73
2023/05/03 14:46:11;;;;;;;8.20;3.70;;;;;;;18.51;35.96;102334.31;5052255;28;20025;-74
2023/05/03 14:48:36;;;;;;;7.03;3.30;;;;;;;19.02;35.52;102325.44;5060584;28;20056;-77
2023/05/03 14:51:02;;;;;;;9.40;4.10;;;;;;;19.69;33.94;102323.81;5071443;28;20381;-74
2023/05/03 14:53:27;;;;;;;9.63;4.15;;;;;;;20.30;33.66;102326.69;5072896;28;20040;-75
2023/05/03 14:55:53;;;;;;;7.20;3.38;;;;;;;21.05;31.89;102327.03;5069849;28;20040;-72
2023/05/03 14:58:18;;;;;;;6.47;3.55;;;;;;;21.31;31.59;102330.03;5065364;28;20030;-71
2023/05/03 15:00:44;;;;;;;8.82;3.60;;;;;;;21.62;30.56;102319.28;5069823;28;20116;-72
2023/05/03 15:03:10;;;;;;;7.38;2.90;;;;;;;22.02;30.71;102320.66;5065059;28;20047;-72
2023/05/03 15:05:43;;;;;;;5.65;3.47;;;;;;;22.13;30.34;102320.44;5060340;28;20082;-72
2023/05/03 15:08:08;;;;;;;9.05;3.25;;;;;;;22.15;29.41;102314.66;5068721;28;20029;-75
2023/05/03 15:10:37;;;;;;;10.00;3.53;;;;;;;21.99;29.46;102313.75;5093004;28;20032;-73
2023/05/03 15:13:02;;;;;;;7.50;3.28;;;;;;;22.12;28.75;102307.75;5093015;28;20472;-74
2023/05/03 15:15:27;;;;;;;9.07;3.63;;;;;;;22.14;28.97;102304.72;5092255;28;20106;-73
2023/05/03 15:17:53;;;;;;;4.75;3.05;;;;;;;22.06;29.71;102313.53;5073105;28;20044;-80
2023/05/03 15:20:21;;;;;;;5.57;3.03;;;;;;;22.30;29.63;102302.88;5092610;28;20137;-75
2023/05/03 15:22:46;;;;;;;9.13;3.80;;;;;;;22.36;29.25;102301.84;5091294;28;20035;-71
2023/05/03 15:25:15;;;;;;;8.27;3.53;;;;;;;22.28;29.45;102300.41;5093069;28;20039;-77
2023/05/03 15:27:40;;;;;;;8.13;3.90;;;;;;;22.34;29.36;102301.25;5090799;28;21719;-75
2023/05/03 15:30:07;;;;;;;7.20;3.13;;;;;;;22.58;28.98;102296.09;5091069;28;20085;-74
2023/05/03 15:32:32;;;;;;;6.85;3.53;;;;;;;22.61;29.19;102291.97;5090529;28;20103;-72
2023/05/03 15:34:58;;;;;;;6.03;3.05;;;;;;;22.66;27.90;102297.50;5091116;28;20115;-71
2023/05/03 15:37:34;;;;;;;8.32;3.33;;;;;;;22.58;29.28;102298.03;5091833;28;20052;-72
2023/05/03 15:40:04;;;;;;;5.82;3.38;;;;;;;22.62;29.14;102288.13;5074909;28;20105;-79
2023/05/03 15:42:29;;;;;;;5.93;3.20;;;;;;;22.72;29.33;102303.88;5072766;28;20399;-71
2023/05/03 15:44:55;;;;;;;8.07;3.60;;;;;;;22.62;28.28;102294.47;5093033;28;20035;-73
2023/05/03 15:47:21;;;;;;;9.80;4.88;;;;;;;22.37;29.54;102292.44;5092901;28;20035;-80
2023/05/03 15:49:46;;;;;;;9.00;3.70;;;;;;;22.48;28.76;102285.88;5091292;28;20028;-72
2023/05/03 15:52:30;;;;;;;10.07;3.85;;;;;;;22.53;29.91;102289.75;5092368;28;20041;-75
2023/05/03 15:58:29;;;;;;;10.93;4.00;;;;;;;21.40;30.47;102289.91;5030540;28;20096;-79
2023/05/03 16:01:06;;;;;;;11.30;4.32;;;;;;;20.91;30.86;102281.75;5089688;28;20028;-81
